sensor_id;sensor_type;location;lat;lon;timestamp;pressure;altitude;pressure_sealevel;temperature;humidity
41712;BME280;27399;51.516;13.670;2023-02-11T00:01:36;102067.50;;;3.25;75.16
41712;BME280;27399;51.516;13.670;2023-02-11T00:04:03;102077.56;;;3.34;75.07
41712;BME280;27399;51.516;13.670;2023-02-11T00:06:30;102082.56;;;3.28;75.83
41712;BME280;27399;51.516;13.670;2023-02-11T00:08:56;102087.81;;;3.46;75.30
41712;BME280;27399;51.516;13.670;2023-02-11T00:11:23;102085.00;;;3.43;75.12
41712;BME280;27399;51.516;13.670;2023-02-11T00:14:00;102070.16;;;3.45;75.65
41712;BME280;27399;51.516;13.670;2023-02-11T00:16:27;102071.13;;;3.28;75.92
41712;BME280;27399;51.516;13.670;2023-02-11T00:18:54;102056.56;;;3.36;76.01
41712;BME280;27399;51.516;13.670;2023-02-11T00:21:24;102053.19;;;3.40;75.60
41712;BME280;27399;51.516;13.670;2023-02-11T00:23:50;102061.59;;;3.31;76.20
41712;BME280;27399;51.516;13.670;2023-02-11T00:26:21;102044.03;;;3.32;76.00
41712;BME280;27399;51.516;13.670;2023-02-11T00:28:48;102041.25;;;3.29;76.26
41712;BME280;27399;51.516;13.670;2023-02-11T00:31:15;102016.63;;;3.28;76.18
41712;BME280;27399;51.516;13.670;2023-02-11T00:33:41;102010.88;;;3.37;76.40
41712;BME280;27399;51.516;13.670;2023-02-11T00:36:10;102011.97;;;3.42;76.06
41712;BME280;27399;51.516;13.670;2023-02-11T00:38:36;102027.00;;;3.25;76.17
41712;BME280;27399;51.516;13.670;2023-02-11T00:41:02;102008.84;;;3.31;76.40
41712;BME280;27399;51.516;13.670;2023-02-11T00:43:27;102009.19;;;3.39;75.98
41712;BME280;27399;51.516;13.670;2023-02-11T00:45:53;102014.78;;;3.45;75.92
41712;BME280;27399;51.516;13.670;2023-02-11T00:48:19;102014.06;;;3.49;76.02
41712;BME280;27399;51.516;13.670;2023-02-11T00:50:44;102014.56;;;3.40;76.71
41712;BME280;27399;51.516;13.670;2023-02-11T00:53:10;102016.69;;;3.49;76.38
41712;BME280;27399;51.516;13.670;2023-02-11T00:55:35;102017.56;;;3.48;76.28
41712;BME280;27399;51.516;13.670;2023-02-11T00:58:01;102020.66;;;3.39;76.51
41712;BME280;27399;51.516;13.670;2023-02-11T01:00:27;102017.16;;;3.59;76.36
41712;BME280;27399;51.516;13.670;2023-02-11T01:02:53;102016.06;;;3.55;76.44
41712;BME280;27399;51.516;13.670;2023-02-11T01:05:19;102004.78;;;3.58;76.08
41712;BME280;27399;51.516;13.670;2023-02-11T01:07:45;102006.03;;;3.46;76.01
41712;BME280;27399;51.516;13.670;2023-02-11T01:10:11;102006.78;;;3.83;75.34
41712;BME280;27399;51.516;13.670;2023-02-11T01:12:37;101996.78;;;3.56;76.55
41712;BME280;27399;51.516;13.670;2023-02-11T01:15:05;101988.59;;;3.50;76.38
41712;BME280;27399;51.516;13.670;2023-02-11T01:17:32;101996.16;;;3.62;76.60
41712;BME280;27399;51.516;13.670;2023-02-11T01:19:57;101981.88;;;3.37;77.15
41712;BME280;27399;51.516;13.670;2023-02-11T01:22:23;101985.75;;;3.65;76.37
41712;BME280;27399;51.516;13.670;2023-02-11T01:24:49;101976.50;;;3.55;76.54
41712;BME280;27399;51.516;13.670;2023-02-11T01:27:14;101991.84;;;3.64;76.70
41712;BME280;27399;51.516;13.670;2023-02-11T01:29:40;101995.75;;;3.52;76.95
41712;BME280;27399;51.516;13.670;2023-02-11T01:32:06;101986.00;;;3.71;76.56
41712;BME280;27399;51.516;13.670;2023-02-11T01:34:31;101976.03;;;3.64;76.66
41712;BME280;27399;51.516;13.670;2023-02-11T01:36:57;101967.09;;;3.81;76.41
41712;BME280;27399;51.516;13.670;2023-02-11T01:39:24;101962.16;;;3.68;76.87
41712;BME280;27399;51.516;13.670;2023-02-11T01:41:50;101964.41;;;3.80;76.67
41712;BME280;27399;51.516;13.670;2023-02-11T01:44:31;101968.47;;;3.52;76.99
41712;BME280;27399;51.516;13.670;2023-02-11T01:46:58;101971.03;;;3.70;77.17
41712;BME280;27399;51.516;13.670;2023-02-11T01:49:30;101968.91;;;3.82;77.02
41712;BME280;27399;51.516;13.670;2023-02-11T01:52:08;101967.06;;;3.60;77.18
41712;BME280;27399;51.516;13.670;2023-02-11T01:54:42;101962.31;;;3.92;76.61
41712;BME280;27399;51.516;13.670;2023-02-11T01:57:30;101960.56;;;3.93;76.53
41712;BME280;27399;51.516;13.670;2023-02-11T02:05:37;101951.69;;;3.71;77.42
41712;BME280;27399;51.516;13.670;2023-02-11T02:10:56;101948.81;;;3.65;77.74
41712;BME280;27399;51.516;13.670;2023-02-11T02:13:26;101956.66;;;4.04;77.06
41712;BME280;27399;51.516;13.670;2023-02-11T02:15:54;101952.53;;;3.90;77.17
41712;BME280;27399;51.516;13.670;2023-02-11T02:21:21;101956.09;;;4.11;76.99
41712;BME280;27399;51.516;13.670;2023-02-11T02:30:31;101936.06;;;4.16;77.23
41712;BME280;27399;51.516;13.670;2023-02-11T02:37:45;101947.72;;;4.22;77.16
41712;BME280;27399;51.516;13.670;2023-02-11T02:40:20;101943.34;;;4.22;77.13
41712;BME280;27399;51.516;13.670;2023-02-11T02:42:48;101937.47;;;4.08;77.55
41712;BME280;27399;51.516;13.670;2023-02-11T02:45:14;101920.47;;;4.23;77.17
41712;BME280;27399;51.516;13.670;2023-02-11T02:47:40;101918.03;;;4.06;77.87
41712;BME280;27399;51.516;13.670;2023-02-11T02:50:07;101926.44;;;4.40;76.56
41712;BME280;27399;51.516;13.670;2023-02-11T02:52:40;101927.41;;;4.42;76.67
41712;BME280;27399;51.516;13.670;2023-02-11T02:58:07;101909.38;;;4.31;76.96
41712;BME280;27399;51.516;13.670;2023-02-11T03:01:07;101906.03;;;4.36;77.31
41712;BME280;27399;51.516;13.670;2023-02-11T03:06:54;101896.94;;;4.29;77.15
41712;BME280;27399;51.516;13.670;2023-02-11T03:09:33;101898.28;;;4.40;76.87
41712;BME280;27399;51.516;13.670;2023-02-11T03:12:03;101888.88;;;4.47;76.63
41712;BME280;27399;51.516;13.670;2023-02-11T03:14:31;101885.69;;;4.56;76.24
41712;BME280;27399;51.516;13.670;2023-02-11T03:17:00;101878.84;;;4.38;76.81
41712;BME280;27399;51.516;13.670;2023-02-11T03:19:30;101888.63;;;4.41;76.68
41712;BME280;27399;51.516;13.670;2023-02-11T03:21:58;101873.81;;;4.44;76.57
41712;BME280;27399;51.516;13.670;2023-02-11T03:24:32;101875.06;;;4.54;76.76
41712;BME280;27399;51.516;13.670;2023-02-11T03:27:08;101878.31;;;4.47;76.88
41712;BME280;27399;51.516;13.670;2023-02-11T03:29:43;101859.63;;;4.65;76.37
41712;BME280;27399;51.516;13.670;2023-02-11T03:32:28;101866.22;;;4.76;75.88
41712;BME280;27399;51.516;13.670;2023-02-11T03:37:50;101843.97;;;4.70;75.94
41712;BME280;27399;51.516;13.670;2023-02-11T03:40:15;101856.25;;;4.69;76.13
41712;BME280;27399;51.516;13.670;2023-02-11T03:42:53;101858.72;;;4.64;76.33
41712;BME280;27399;51.516;13.670;2023-02-11T03:45:22;101858.53;;;4.60;76.46
41712;BME280;27399;51.516;13.670;2023-02-11T03:47:56;101843.38;;;4.78;76.27
41712;BME280;27399;51.516;13.670;2023-02-11T03:50:25;101832.97;;;4.59;76.68
41712;BME280;27399;51.516;13.670;2023-02-11T03:52:52;101845.28;;;4.58;76.96
41712;BME280;27399;51.516;13.670;2023-02-11T03:55:19;101845.16;;;4.78;76.55
41712;BME280;27399;51.516;13.670;2023-02-11T03:57:47;101842.34;;;4.73;76.75
41712;BME280;27399;51.516;13.670;2023-02-11T04:00:14;101842.44;;;4.76;76.61
41712;BME280;27399;51.516;13.670;2023-02-11T04:02:40;101846.47;;;4.44;77.21
41712;BME280;27399;51.516;13.670;2023-02-11T04:05:07;101848.59;;;4.53;77.11
41712;BME280;27399;51.516;13.670;2023-02-11T04:07:34;101853.63;;;4.69;76.94
41712;BME280;27399;51.516;13.670;2023-02-11T04:10:00;101847.19;;;4.62;77.24
41712;BME280;27399;51.516;13.670;2023-02-11T04:12:25;101841.25;;;4.92;76.69
41712;BME280;27399;51.516;13.670;2023-02-11T04:14:51;101843.03;;;4.69;77.14
41712;BME280;27399;51.516;13.670;2023-02-11T04:17:17;101840.56;;;4.74;77.00
41712;BME280;27399;51.516;13.670;2023-02-11T04:19:43;101821.09;;;4.72;77.14
41712;BME280;27399;51.516;13.670;2023-02-11T04:22:08;101846.63;;;4.94;77.09
41712;BME280;27399;51.516;13.670;2023-02-11T04:24:34;101839.50;;;4.69;77.49
41712;BME280;27399;51.516;13.670;2023-02-11T04:27:00;101841.56;;;5.00;77.12
41712;BME280;27399;51.516;13.670;2023-02-11T04:29:25;101856.38;;;4.95;77.52
41712;BME280;27399;51.516;13.670;2023-02-11T04:31:53;101850.59;;;4.83;77.94
41712;BME280;27399;51.516;13.670;2023-02-11T04:34:19;101845.50;;;4.87;77.84
41712;BME280;27399;51.516;13.670;2023-02-11T04:36:44;101835.72;;;4.85;78.30
41712;BME280;27399;51.516;13.670;2023-02-11T04:39:10;101832.59;;;4.72;79.27
41712;BME280;27399;51.516;13.670;2023-02-11T04:41:35;101836.31;;;4.77;79.23
41712;BME280;27399;51.516;13.670;2023-02-11T04:44:01;101831.47;;;4.90;79.48
41712;BME280;27399;51.516;13.670;2023-02-11T04:46:26;101836.31;;;4.77;79.78
41712;BME280;27399;51.516;13.670;2023-02-11T04:48:52;101837.41;;;4.60;80.75
41712;BME280;27399;51.516;13.670;2023-02-11T04:51:18;101833.56;;;4.52;81.54
41712;BME280;27399;51.516;13.670;2023-02-11T04:53:43;101831.06;;;4.55;81.48
41712;BME280;27399;51.516;13.670;2023-02-11T04:56:09;101835.25;;;4.49;81.57
41712;BME280;27399;51.516;13.670;2023-02-11T04:58:34;101830.19;;;4.56;81.79
41712;BME280;27399;51.516;13.670;2023-02-11T05:01:12;101832.66;;;4.74;81.38
41712;BME280;27399;51.516;13.670;2023-02-11T05:03:38;101832.97;;;4.59;82.03
41712;BME280;27399;51.516;13.670;2023-02-11T05:06:04;101828.03;;;4.45;82.91
41712;BME280;27399;51.516;13.670;2023-02-11T05:08:30;101807.31;;;4.33;83.48
41712;BME280;27399;51.516;13.670;2023-02-11T05:10:56;101822.50;;;4.62;82.58
41712;BME280;27399;51.516;13.670;2023-02-11T05:13:22;101824.19;;;4.37;83.26
41712;BME280;27399;51.516;13.670;2023-02-11T05:15:47;101826.47;;;4.50;82.80
41712;BME280;27399;51.516;13.670;2023-02-11T05:18:13;101814.50;;;4.60;82.30
41712;BME280;27399;51.516;13.670;2023-02-11T05:20:40;101817.28;;;4.41;83.00
41712;BME280;27399;51.516;13.670;2023-02-11T05:23:06;101821.72;;;4.64;81.88
41712;BME280;27399;51.516;13.670;2023-02-11T05:25:32;101806.78;;;4.65;82.14
41712;BME280;27399;51.516;13.670;2023-02-11T05:27:57;101818.63;;;4.76;81.46
41712;BME280;27399;51.516;13.670;2023-02-11T05:30:23;101806.13;;;4.71;82.40
41712;BME280;27399;51.516;13.670;2023-02-11T05:32:49;101808.22;;;4.57;82.53
41712;BME280;27399;51.516;13.670;2023-02-11T05:35:14;101800.88;;;4.72;82.55
41712;BME280;27399;51.516;13.670;2023-02-11T05:37:40;101798.78;;;4.63;82.54
41712;BME280;27399;51.516;13.670;2023-02-11T05:40:06;101799.78;;;4.67;82.46
41712;BME280;27399;51.516;13.670;2023-02-11T05:42:31;101803.19;;;4.63;83.27
41712;BME280;27399;51.516;13.670;2023-02-11T05:44:57;101797.50;;;4.76;82.53
41712;BME280;27399;51.516;13.670;2023-02-11T05:47:23;101811.47;;;4.96;81.73
41712;BME280;27399;51.516;13.670;2023-02-11T05:49:48;101800.09;;;4.75;82.65
41712;BME280;27399;51.516;13.670;2023-02-11T05:52:14;101804.38;;;4.71;82.42
41712;BME280;27399;51.516;13.670;2023-02-11T05:54:39;101800.03;;;4.73;82.71
41712;BME280;27399;51.516;13.670;2023-02-11T05:57:05;101793.13;;;4.77;82.50
41712;BME280;27399;51.516;13.670;2023-02-11T05:59:31;101795.47;;;4.93;82.66
41712;BME280;27399;51.516;13.670;2023-02-11T06:01:56;101804.88;;;4.85;82.66
41712;BME280;27399;51.516;13.670;2023-02-11T06:04:22;101793.91;;;4.74;83.19
41712;BME280;27399;51.516;13.670;2023-02-11T06:06:47;101807.69;;;4.90;82.79
41712;BME280;27399;51.516;13.670;2023-02-11T06:09:13;101782.00;;;4.86;82.55
41712;BME280;27399;51.516;13.670;2023-02-11T06:11:39;101784.00;;;4.93;82.77
41712;BME280;27399;51.516;13.670;2023-02-11T06:14:04;101788.38;;;4.92;82.66
41712;BME280;27399;51.516;13.670;2023-02-11T06:16:30;101784.00;;;4.69;83.38
41712;BME280;27399;51.516;13.670;2023-02-11T06:18:56;101782.59;;;4.78;83.09
41712;BME280;27399;51.516;13.670;2023-02-11T06:21:22;101775.78;;;4.85;82.76
41712;BME280;27399;51.516;13.670;2023-02-11T06:23:47;101781.88;;;4.83;83.36
41712;BME280;27399;51.516;13.670;2023-02-11T06:26:19;101783.88;;;4.90;82.58
41712;BME280;27399;51.516;13.670;2023-02-11T06:28:45;101782.00;;;4.86;82.61
41712;BME280;27399;51.516;13.670;2023-02-11T06:31:11;101771.16;;;5.04;81.91
41712;BME280;27399;51.516;13.670;2023-02-11T06:33:37;101772.16;;;5.32;80.99
41712;BME280;27399;51.516;13.670;2023-02-11T06:36:08;101756.22;;;5.04;81.21
41712;BME280;27399;51.516;13.670;2023-02-11T06:38:36;101779.25;;;5.08;81.55
41712;BME280;27399;51.516;13.670;2023-02-11T06:41:02;101784.78;;;5.15;81.02
41712;BME280;27399;51.516;13.670;2023-02-11T06:43:28;101776.38;;;5.26;80.34
41712;BME280;27399;51.516;13.670;2023-02-11T06:45:54;101772.75;;;4.99;81.14
41712;BME280;27399;51.516;13.670;2023-02-11T06:48:20;101778.34;;;5.06;80.80
41712;BME280;27399;51.516;13.670;2023-02-11T06:50:46;101779.50;;;5.15;80.25
41712;BME280;27399;51.516;13.670;2023-02-11T06:53:12;101762.19;;;4.99;80.16
41712;BME280;27399;51.516;13.670;2023-02-11T06:55:38;101780.97;;;5.06;80.10
41712;BME280;27399;51.516;13.670;2023-02-11T06:58:03;101783.03;;;5.15;79.77
41712;BME280;27399;51.516;13.670;2023-02-11T07:00:29;101791.38;;;5.26;79.33
41712;BME280;27399;51.516;13.670;2023-02-11T07:02:55;101793.00;;;5.22;79.43
41712;BME280;27399;51.516;13.670;2023-02-11T07:05:21;101784.56;;;5.08;79.17
41712;BME280;27399;51.516;13.670;2023-02-11T07:07:46;101800.50;;;5.10;79.16
41712;BME280;27399;51.516;13.670;2023-02-11T07:10:12;101804.72;;;5.29;78.68
41712;BME280;27399;51.516;13.670;2023-02-11T07:12:38;101801.66;;;5.18;78.98
41712;BME280;27399;51.516;13.670;2023-02-11T07:15:04;101811.34;;;5.18;79.19
41712;BME280;27399;51.516;13.670;2023-02-11T07:17:30;101798.81;;;5.38;78.85
41712;BME280;27399;51.516;13.670;2023-02-11T07:19:56;101807.75;;;5.41;78.51
41712;BME280;27399;51.516;13.670;2023-02-11T07:22:21;101804.91;;;5.35;78.68
41712;BME280;27399;51.516;13.670;2023-02-11T07:24:47;101809.47;;;5.15;79.41
41712;BME280;27399;51.516;13.670;2023-02-11T07:27:12;101800.13;;;5.51;78.40
41712;BME280;27399;51.516;13.670;2023-02-11T07:29:38;101796.66;;;5.52;78.18
41712;BME280;27399;51.516;13.670;2023-02-11T07:32:04;101802.91;;;5.54;78.38
41712;BME280;27399;51.516;13.670;2023-02-11T07:34:30;101810.72;;;5.51;78.51
41712;BME280;27399;51.516;13.670;2023-02-11T07:36:56;101810.59;;;5.22;79.31
41712;BME280;27399;51.516;13.670;2023-02-11T07:39:22;101809.78;;;5.49;79.42
41712;BME280;27399;51.516;13.670;2023-02-11T07:41:52;101814.56;;;5.35;79.10
41712;BME280;27399;51.516;13.670;2023-02-11T07:44:17;101808.72;;;5.43;79.16
41712;BME280;27399;51.516;13.670;2023-02-11T07:46:43;101811.69;;;5.53;79.03
41712;BME280;27399;51.516;13.670;2023-02-11T07:49:10;101807.91;;;5.46;79.33
41712;BME280;27399;51.516;13.670;2023-02-11T07:51:36;101802.47;;;5.41;79.45
41712;BME280;27399;51.516;13.670;2023-02-11T07:54:02;101794.31;;;5.35;79.88
41712;BME280;27399;51.516;13.670;2023-02-11T07:56:28;101797.50;;;5.25;80.30
41712;BME280;27399;51.516;13.670;2023-02-11T07:58:55;101800.41;;;5.33;80.51
41712;BME280;27399;51.516;13.670;2023-02-11T08:01:24;101811.34;;;5.18;80.48
41712;BME280;27399;51.516;13.670;2023-02-11T08:03:54;101800.63;;;5.13;81.00
41712;BME280;27399;51.516;13.670;2023-02-11T08:06:21;101791.28;;;5.49;79.74
41712;BME280;27399;51.516;13.670;2023-02-11T08:08:48;101786.66;;;5.43;79.68
41712;BME280;27399;51.516;13.670;2023-02-11T08:11:19;101786.00;;;5.24;80.30
41712;BME280;27399;51.516;13.670;2023-02-11T08:13:45;101787.44;;;5.40;79.93
41712;BME280;27399;51.516;13.670;2023-02-11T08:16:23;101787.22;;;5.34;80.24
41712;BME280;27399;51.516;13.670;2023-02-11T08:18:51;101787.84;;;5.53;79.59
41712;BME280;27399;51.516;13.670;2023-02-11T08:21:17;101778.75;;;5.45;79.36
41712;BME280;27399;51.516;13.670;2023-02-11T08:23:44;101772.75;;;5.49;79.56
41712;BME280;27399;51.516;13.670;2023-02-11T08:26:16;101783.56;;;5.56;79.69
41712;BME280;27399;51.516;13.670;2023-02-11T08:28:43;101772.06;;;5.54;79.16
41712;BME280;27399;51.516;13.670;2023-02-11T08:31:31;101782.88;;;5.62;79.00
41712;BME280;27399;51.516;13.670;2023-02-11T08:33:58;101790.19;;;5.69;78.64
41712;BME280;27399;51.516;13.670;2023-02-11T08:36:32;101793.00;;;5.48;79.38
41712;BME280;27399;51.516;13.670;2023-02-11T08:39:00;101782.78;;;5.59;79.50
41712;BME280;27399;51.516;13.670;2023-02-11T08:41:28;101794.22;;;5.58;79.73
41712;BME280;27399;51.516;13.670;2023-02-11T08:43:54;101803.59;;;5.74;79.37
41712;BME280;27399;51.516;13.670;2023-02-11T08:46:20;101795.94;;;5.57;79.61
41712;BME280;27399;51.516;13.670;2023-02-11T08:48:46;101788.47;;;5.71;79.39
41712;BME280;27399;51.516;13.670;2023-02-11T08:51:17;101784.13;;;5.73;78.94
41712;BME280;27399;51.516;13.670;2023-02-11T08:53:44;101763.25;;;5.30;79.75
41712;BME280;27399;51.516;13.670;2023-02-11T08:56:11;101811.94;;;5.61;80.15
41712;BME280;27399;51.516;13.670;2023-02-11T08:58:37;101815.28;;;5.81;79.93
41712;BME280;27399;51.516;13.670;2023-02-11T09:01:16;101818.34;;;5.67;79.69
41712;BME280;27399;51.516;13.670;2023-02-11T09:03:42;101807.16;;;5.49;80.23
41712;BME280;27399;51.516;13.670;2023-02-11T09:06:09;101818.47;;;5.70;79.99
41712;BME280;27399;51.516;13.670;2023-02-11T09:08:37;101823.41;;;5.61;80.10
41712;BME280;27399;51.516;13.670;2023-02-11T09:11:03;101826.25;;;5.93;79.33
41712;BME280;27399;51.516;13.670;2023-02-11T09:13:30;101800.97;;;5.76;79.65
41712;BME280;27399;51.516;13.670;2023-02-11T09:15:57;101829.38;;;5.80;79.70
41712;BME280;27399;51.516;13.670;2023-02-11T09:18:22;101829.44;;;5.83;79.80
41712;BME280;27399;51.516;13.670;2023-02-11T09:20:48;101822.31;;;5.80;79.80
41712;BME280;27399;51.516;13.670;2023-02-11T09:23:14;101831.06;;;5.78;81.13
41712;BME280;27399;51.516;13.670;2023-02-11T09:25:40;101815.31;;;5.56;80.75
41712;BME280;27399;51.516;13.670;2023-02-11T09:28:06;101821.47;;;5.81;80.70
41712;BME280;27399;51.516;13.670;2023-02-11T09:30:32;101809.78;;;6.00;79.72
41712;BME280;27399;51.516;13.670;2023-02-11T09:32:58;101807.38;;;5.82;80.33
41712;BME280;27399;51.516;13.670;2023-02-11T09:35:23;101785.13;;;5.77;80.89
41712;BME280;27399;51.516;13.670;2023-02-11T09:37:49;101808.25;;;5.83;81.15
41712;BME280;27399;51.516;13.670;2023-02-11T09:40:15;101805.88;;;5.90;80.35
41712;BME280;27399;51.516;13.670;2023-02-11T09:45:29;101780.16;;;5.86;80.82
41712;BME280;27399;51.516;13.670;2023-02-11T09:48:01;101805.38;;;6.01;80.69
41712;BME280;27399;51.516;13.670;2023-02-11T09:50:34;101806.66;;;6.14;80.35
41712;BME280;27399;51.516;13.670;2023-02-11T09:53:03;101795.13;;;6.12;80.30
41712;BME280;27399;51.516;13.670;2023-02-11T09:55:37;101800.34;;;6.10;80.26
41712;BME280;27399;51.516;13.670;2023-02-11T10:06:40;101789.84;;;6.12;80.36
41712;BME280;27399;51.516;13.670;2023-02-11T10:13:04;101791.78;;;6.17;81.07
41712;BME280;27399;51.516;13.670;2023-02-11T10:15:28;101807.81;;;6.22;80.72
41712;BME280;27399;51.516;13.670;2023-02-11T10:20:40;101814.81;;;6.20;81.35
41712;BME280;27399;51.516;13.670;2023-02-11T10:23:37;101804.69;;;6.35;80.67
41712;BME280;27399;51.516;13.670;2023-02-11T10:26:11;101795.41;;;6.50;80.62
41712;BME280;27399;51.516;13.670;2023-02-11T10:28:39;101802.53;;;6.53;80.51
41712;BME280;27399;51.516;13.670;2023-02-11T10:31:10;101791.97;;;6.83;79.45
41712;BME280;27399;51.516;13.670;2023-02-11T10:33:53;101777.94;;;6.57;79.73
41712;BME280;27399;51.516;13.670;2023-02-11T10:36:24;101798.47;;;6.64;80.24
41712;BME280;27399;51.516;13.670;2023-02-11T10:38:51;101788.66;;;6.60;80.58
41712;BME280;27399;51.516;13.670;2023-02-11T10:41:21;101793.06;;;6.91;79.48
41712;BME280;27399;51.516;13.670;2023-02-11T10:43:50;101790.97;;;6.79;79.44
41712;BME280;27399;51.516;13.670;2023-02-11T10:46:18;101799.53;;;6.69;79.77
41712;BME280;27399;51.516;13.670;2023-02-11T10:48:48;101789.72;;;6.66;80.19
41712;BME280;27399;51.516;13.670;2023-02-11T10:51:29;101788.84;;;6.67;79.82
41712;BME280;27399;51.516;13.670;2023-02-11T10:56:32;101784.44;;;6.66;80.65
41712;BME280;27399;51.516;13.670;2023-02-11T10:59:04;101792.53;;;6.73;80.85
41712;BME280;27399;51.516;13.670;2023-02-11T11:02:00;101802.50;;;6.51;81.33
41712;BME280;27399;51.516;13.670;2023-02-11T11:04:44;101792.31;;;6.65;81.05
41712;BME280;27399;51.516;13.670;2023-02-11T11:12:28;101795.31;;;6.76;81.16
41712;BME280;27399;51.516;13.670;2023-02-11T11:17:41;101796.41;;;6.84;80.69
41712;BME280;27399;51.516;13.670;2023-02-11T11:20:22;101793.56;;;6.78;81.23
41712;BME280;27399;51.516;13.670;2023-02-11T11:22:50;101797.38;;;6.86;81.05
41712;BME280;27399;51.516;13.670;2023-02-11T11:25:27;101804.47;;;6.58;81.95
41712;BME280;27399;51.516;13.670;2023-02-11T11:27:59;101802.41;;;6.77;81.42
41712;BME280;27399;51.516;13.670;2023-02-11T11:30:45;101802.19;;;6.71;81.71
41712;BME280;27399;51.516;13.670;2023-02-11T11:33:20;101798.50;;;6.96;81.05
41712;BME280;27399;51.516;13.670;2023-02-11T11:36:06;101798.88;;;6.78;81.18
41712;BME280;27399;51.516;13.670;2023-02-11T11:38:35;101792.66;;;6.76;81.84
41712;BME280;27399;51.516;13.670;2023-02-11T11:41:25;101794.75;;;6.88;81.83
41712;BME280;27399;51.516;13.670;2023-02-11T11:46:37;101797.63;;;6.95;81.66
41712;BME280;27399;51.516;13.670;2023-02-11T11:51:40;101792.59;;;6.74;82.86
41712;BME280;27399;51.516;13.670;2023-02-11T11:54:11;101796.69;;;6.95;82.39
41712;BME280;27399;51.516;13.670;2023-02-11T11:56:51;101802.47;;;6.80;82.62
41712;BME280;27399;51.516;13.670;2023-02-11T11:59:18;101799.09;;;6.86;81.88
41712;BME280;27399;51.516;13.670;2023-02-11T12:02:09;101791.28;;;6.90;82.62
41712;BME280;27399;51.516;13.670;2023-02-11T12:04:54;101784.34;;;6.95;82.38
41712;BME280;27399;51.516;13.670;2023-02-11T12:13:48;101779.13;;;6.98;82.86
41712;BME280;27399;51.516;13.670;2023-02-11T12:16:41;101784.22;;;6.91;83.24
41712;BME280;27399;51.516;13.670;2023-02-11T12:19:34;101786.75;;;6.86;83.17
41712;BME280;27399;51.516;13.670;2023-02-11T12:22:10;101786.16;;;6.96;82.90
41712;BME280;27399;51.516;13.670;2023-02-11T12:30:37;101793.44;;;7.04;83.28
41712;BME280;27399;51.516;13.670;2023-02-11T12:33:25;101802.66;;;6.86;84.10
41712;BME280;27399;51.516;13.670;2023-02-11T12:36:33;101796.06;;;7.04;83.69
41712;BME280;27399;51.516;13.670;2023-02-11T12:40:25;101786.41;;;7.06;83.45
41712;BME280;27399;51.516;13.670;2023-02-11T12:50:29;101795.50;;;7.16;83.92
41712;BME280;27399;51.516;13.670;2023-02-11T12:53:11;101793.88;;;7.19;83.56
41712;BME280;27399;51.516;13.670;2023-02-11T12:55:43;101795.78;;;6.93;84.17
41712;BME280;27399;51.516;13.670;2023-02-11T12:58:15;101780.84;;;7.28;83.37
41712;BME280;27399;51.516;13.670;2023-02-11T13:03:28;101785.72;;;7.13;83.85
41712;BME280;27399;51.516;13.670;2023-02-11T13:06:20;101768.19;;;7.18;83.79
41712;BME280;27399;51.516;13.670;2023-02-11T13:08:52;101769.56;;;7.37;83.76
41712;BME280;27399;51.516;13.670;2023-02-11T13:11:26;101774.50;;;7.23;83.55
41712;BME280;27399;51.516;13.670;2023-02-11T13:13:59;101777.47;;;7.36;83.46
41712;BME280;27399;51.516;13.670;2023-02-11T13:16:35;101766.88;;;7.36;83.42
41712;BME280;27399;51.516;13.670;2023-02-11T13:24:44;101767.72;;;7.35;84.10
41712;BME280;27399;51.516;13.670;2023-02-11T13:30:36;101784.25;;;7.24;84.29
41712;BME280;27399;51.516;13.670;2023-02-11T13:38:31;101774.34;;;7.17;84.47
41712;BME280;27399;51.516;13.670;2023-02-11T13:43:42;101755.84;;;7.20;84.77
41712;BME280;27399;51.516;13.670;2023-02-11T13:46:12;101773.72;;;7.27;85.18
41712;BME280;27399;51.516;13.670;2023-02-11T13:48:46;101772.25;;;7.39;84.29
41712;BME280;27399;51.516;13.670;2023-02-11T13:51:17;101765.09;;;7.36;85.18
41712;BME280;27399;51.516;13.670;2023-02-11T13:56:30;101770.38;;;7.35;85.53
41712;BME280;27399;51.516;13.670;2023-02-11T13:58:57;101764.00;;;7.28;85.79
41712;BME280;27399;51.516;13.670;2023-02-11T14:04:21;101758.06;;;7.37;84.95
41712;BME280;27399;51.516;13.670;2023-02-11T14:13:36;101753.72;;;7.07;87.33
41712;BME280;27399;51.516;13.670;2023-02-11T14:16:22;101765.72;;;7.26;86.80
41712;BME280;27399;51.516;13.670;2023-02-11T14:23:52;101749.28;;;7.41;85.26
41712;BME280;27399;51.516;13.670;2023-02-11T14:29:14;101757.44;;;7.49;85.30
41712;BME280;27399;51.516;13.670;2023-02-11T14:44:07;101757.72;;;7.24;87.41
41712;BME280;27399;51.516;13.670;2023-02-11T14:46:43;101755.88;;;7.57;85.75
41712;BME280;27399;51.516;13.670;2023-02-11T14:49:16;101767.69;;;7.33;86.08
41712;BME280;27399;51.516;13.670;2023-02-11T14:51:46;101769.22;;;7.58;85.54
41712;BME280;27399;51.516;13.670;2023-02-11T14:54:16;101771.25;;;7.69;85.02
41712;BME280;27399;51.516;13.670;2023-02-11T14:56:43;101776.38;;;7.61;84.95
41712;BME280;27399;51.516;13.670;2023-02-11T14:59:21;101781.31;;;7.47;85.71
41712;BME280;27399;51.516;13.670;2023-02-11T15:01:51;101774.22;;;7.46;86.33
41712;BME280;27399;51.516;13.670;2023-02-11T15:04:26;101774.94;;;7.40;86.67
41712;BME280;27399;51.516;13.670;2023-02-11T15:06:53;101781.47;;;7.53;86.29
41712;BME280;27399;51.516;13.670;2023-02-11T15:09:31;101784.94;;;7.51;85.10
41712;BME280;27399;51.516;13.670;2023-02-11T15:11:58;101795.22;;;7.37;86.53
41712;BME280;27399;51.516;13.670;2023-02-11T15:14:34;101790.41;;;7.57;86.12
41712;BME280;27399;51.516;13.670;2023-02-11T15:17:06;101801.13;;;7.60;85.25
41712;BME280;27399;51.516;13.670;2023-02-11T15:19:36;101801.97;;;7.25;86.80
41712;BME280;27399;51.516;13.670;2023-02-11T15:22:06;101797.34;;;7.50;85.58